Walker, California
Current Conditions -  °F | °C
As of 6:52 PM on Tuesday 25 Nov 2014 (Local Time) from KBAN Reporting Station
Clear Clear  
Wind Chill: 41°   Ceiling: Unl
Heat Index: 41°   Visibility: NA
Dew Point: 22°   Wind: 0mph
Humidity: 47%   Direction: NA
Pressure: 30.53"   Gusts: NA
Location:  38.4678°N, 119.486°W
Report Text: KBAN 260252Z AUTO 00000KT CLR 05/M06 A3053 RMK AO2 SLP351 T00501056 53012 $
Loading
Personal Weather Stations






























Interactive Weather Map New forecast layout! Learn more

10-Day Weather Forecast

Advertisements
Track Severe Weather on mobile